createdAt,value
2017-09-17T00:00:03.036Z,78.50
2017-09-17T00:02:30.593Z,78.40
2017-09-17T00:04:58.157Z,79.00
2017-09-17T00:07:25.733Z,79.30
2017-09-17T00:09:53.285Z,79.50
2017-09-17T00:12:20.905Z,79.50
2017-09-17T00:14:49.225Z,79.70
2017-09-17T00:17:16.786Z,79.70
2017-09-17T00:19:44.401Z,79.70
2017-09-17T00:22:11.967Z,79.40
2017-09-17T00:24:39.565Z,79.70
2017-09-17T00:27:07.180Z,79.50
2017-09-17T00:29:35.496Z,79.60
2017-09-17T00:32:03.083Z,79.60
2017-09-17T00:34:31.392Z,79.80
2017-09-17T00:36:59.741Z,79.60
2017-09-17T00:39:27.333Z,79.50
2017-09-17T00:41:55.649Z,79.80
2017-09-17T00:44:23.221Z,79.70
2017-09-17T00:46:50.847Z,79.60
2017-09-17T00:49:18.414Z,79.70
2017-09-17T00:51:46.058Z,79.60
2017-09-17T00:54:13.653Z,79.60
2017-09-17T00:56:41.214Z,79.90
2017-09-17T00:59:08.805Z,79.80
2017-09-17T01:01:36.379Z,79.50
2017-09-17T01:04:04.747Z,79.80
2017-09-17T01:06:32.296Z,79.80
2017-09-17T01:08:59.910Z,80.00
2017-09-17T01:11:27.530Z,80.00
2017-09-17T01:13:55.072Z,79.50
2017-09-17T01:16:22.698Z,80.10
2017-09-17T01:18:50.318Z,79.80
2017-09-17T01:21:18.670Z,80.00
2017-09-17T01:23:46.253Z,79.90
2017-09-17T01:26:13.863Z,79.70
2017-09-17T01:28:41.438Z,80.10
2017-09-17T01:31:09.032Z,80.20
2017-09-17T01:33:37.404Z,80.30
2017-09-17T01:36:04.988Z,80.20
2017-09-17T01:38:33.369Z,80.40
2017-09-17T01:41:01.706Z,80.30
2017-09-17T01:43:29.267Z,80.30
2017-09-17T01:45:56.866Z,80.40
2017-09-17T01:48:25.194Z,80.20
2017-09-17T01:50:52.749Z,80.20
2017-09-17T01:53:20.359Z,80.50
2017-09-17T01:55:48.698Z,80.60
2017-09-17T01:58:16.332Z,80.60
2017-09-17T02:00:43.896Z,80.60
2017-09-17T02:03:11.435Z,80.70
2017-09-17T02:05:39.030Z,80.50
2017-09-17T02:08:06.618Z,80.40
2017-09-17T02:10:34.183Z,80.70
2017-09-17T02:13:02.562Z,80.80
2017-09-17T02:15:30.121Z,80.80
2017-09-17T02:17:57.674Z,80.80
2017-09-17T02:20:25.261Z,81.00
2017-09-17T02:22:53.585Z,81.10
2017-09-17T02:25:21.161Z,81.00
2017-09-17T02:27:48.743Z,81.00
2017-09-17T02:30:17.078Z,81.10
2017-09-17T02:32:44.684Z,81.10
2017-09-17T02:35:12.254Z,81.00
2017-09-17T02:37:40.578Z,81.10
2017-09-17T02:40:08.183Z,81.10
2017-09-17T02:42:36.568Z,81.00
2017-09-17T02:45:04.896Z,80.90
2017-09-17T02:47:32.465Z,80.90
2017-09-17T02:50:00.040Z,81.10
2017-09-17T02:52:27.614Z,81.30
2017-09-17T02:54:55.977Z,81.10
2017-09-17T02:57:23.545Z,81.10
2017-09-17T02:59:51.095Z,81.30
2017-09-17T03:02:18.698Z,81.50
2017-09-17T03:04:46.251Z,81.50
2017-09-17T03:07:13.800Z,81.50
2017-09-17T03:09:42.156Z,81.50
2017-09-17T03:12:09.714Z,81.50
2017-09-17T03:14:37.287Z,81.40
2017-09-17T03:17:05.706Z,81.60
2017-09-17T03:19:33.282Z,81.60
2017-09-17T03:22:00.878Z,81.50
2017-09-17T03:24:28.474Z,81.50
2017-09-17T03:26:56.031Z,81.40
2017-09-17T03:29:23.625Z,81.70
2017-09-17T03:31:51.185Z,81.80
2017-09-17T03:34:18.809Z,81.80
2017-09-17T03:36:46.403Z,81.90
2017-09-17T03:39:13.964Z,81.70
2017-09-17T03:41:41.549Z,82.20
2017-09-17T03:44:09.142Z,81.50
2017-09-17T03:46:36.697Z,81.50
2017-09-17T03:49:05.059Z,81.80
2017-09-17T03:51:32.628Z,81.70
2017-09-17T03:54:00.956Z,82.00
2017-09-17T03:56:28.534Z,81.90
2017-09-17T03:58:56.117Z,81.90
2017-09-17T04:01:23.719Z,81.90
2017-09-17T04:03:51.291Z,81.80
2017-09-17T04:06:18.875Z,81.90
2017-09-17T04:08:46.471Z,81.90
2017-09-17T04:11:14.779Z,81.80
2017-09-17T04:13:42.390Z,81.80
2017-09-17T04:16:09.977Z,81.80
2017-09-17T04:18:38.343Z,82.00
2017-09-17T04:21:06.687Z,82.00
2017-09-17T04:23:34.249Z,82.10
2017-09-17T04:26:02.656Z,82.80
2017-09-17T04:28:30.240Z,82.20
2017-09-17T04:30:57.798Z,82.70
2017-09-17T04:33:25.443Z,82.10
2017-09-17T04:35:53.770Z,82.20
2017-09-17T04:38:21.317Z,82.20
2017-09-17T04:40:48.886Z,82.10
2017-09-17T04:43:16.436Z,82.10
2017-09-17T04:45:44.012Z,82.00
2017-09-17T04:48:11.584Z,82.10
2017-09-17T04:50:39.141Z,82.10
2017-09-17T04:53:06.741Z,82.20
2017-09-17T04:55:35.084Z,82.10
2017-09-17T04:58:02.642Z,82.10
2017-09-17T05:00:30.241Z,82.20
2017-09-17T05:02:58.607Z,82.10
2017-09-17T05:05:26.957Z,82.20
2017-09-17T05:07:54.557Z,82.10
2017-09-17T05:10:22.892Z,82.10
2017-09-17T05:12:50.490Z,82.20
2017-09-17T05:15:18.837Z,82.50
2017-09-17T05:17:46.377Z,82.40
2017-09-17T05:20:13.973Z,82.40
2017-09-17T05:22:41.560Z,82.40
2017-09-17T05:25:09.142Z,82.40
2017-09-17T05:27:36.707Z,82.30
2017-09-17T05:30:04.291Z,82.20
2017-09-17T05:32:31.877Z,82.40
2017-09-17T05:34:59.476Z,82.70
2017-09-17T05:37:27.034Z,82.80
2017-09-17T05:39:54.635Z,83.00
2017-09-17T05:42:22.211Z,82.90
2017-09-17T05:44:49.759Z,82.90
2017-09-17T05:47:17.355Z,83.00
2017-09-17T05:49:45.675Z,82.90
2017-09-17T05:52:13.260Z,83.00
2017-09-17T05:54:40.831Z,83.10
2017-09-17T05:57:08.426Z,83.10
2017-09-17T05:59:36.004Z,83.00
2017-09-17T06:02:03.570Z,83.20
2017-09-17T06:04:31.153Z,83.20
2017-09-17T06:06:58.745Z,82.90
2017-09-17T06:09:27.077Z,83.20
2017-09-17T06:11:54.633Z,83.00
2017-09-17T06:14:22.203Z,83.20
2017-09-17T06:16:49.751Z,83.40
2017-09-17T06:19:17.337Z,83.20
2017-09-17T06:21:44.902Z,83.00
2017-09-17T06:24:12.484Z,83.30
2017-09-17T06:26:40.851Z,83.30
2017-09-17T06:29:09.192Z,83.30
2017-09-17T06:31:36.751Z,83.30
2017-09-17T06:34:04.337Z,83.20
2017-09-17T06:36:31.888Z,83.50
2017-09-17T06:38:59.449Z,83.70
2017-09-17T06:41:27.041Z,83.60
2017-09-17T06:43:55.366Z,83.70
2017-09-17T06:46:22.928Z,83.70
2017-09-17T06:48:51.311Z,83.40
2017-09-17T06:51:18.880Z,83.40
2017-09-17T06:53:46.917Z,83.60
2017-09-17T06:56:15.228Z,83.40
2017-09-17T06:58:43.295Z,83.20
2017-09-17T07:01:11.234Z,83.10
2017-09-17T07:03:38.865Z,83.00
2017-09-17T07:06:07.579Z,83.00
2017-09-17T07:08:35.199Z,83.00
2017-09-17T07:11:02.797Z,83.10
2017-09-17T07:13:30.354Z,83.50
2017-09-17T07:15:58.435Z,83.40
2017-09-17T07:18:26.510Z,83.10
2017-09-17T07:20:54.434Z,83.10
2017-09-17T07:23:22.783Z,83.00
2017-09-17T07:25:50.333Z,83.00
2017-09-17T07:28:17.908Z,82.60
2017-09-17T07:30:45.471Z,82.30
2017-09-17T07:33:13.027Z,81.90
2017-09-17T07:35:40.610Z,81.40
2017-09-17T07:38:08.962Z,81.40
2017-09-17T07:40:36.521Z,81.40
2017-09-17T07:43:04.135Z,80.50
2017-09-17T07:45:31.714Z,80.70
2017-09-17T07:47:59.286Z,80.20
2017-09-17T07:50:26.839Z,80.20
2017-09-17T07:52:54.434Z,80.20
2017-09-17T07:55:22.000Z,80.00
2017-09-17T07:57:49.572Z,79.90
2017-09-17T08:00:17.185Z,80.60
2017-09-17T08:02:44.741Z,82.00
2017-09-17T08:05:12.355Z,81.20
2017-09-17T08:07:40.694Z,81.60
2017-09-17T08:10:08.269Z,81.60
2017-09-17T08:12:35.864Z,81.10
2017-09-17T08:15:03.443Z,81.50
2017-09-17T08:17:31.001Z,82.20
2017-09-17T08:19:58.580Z,83.00
2017-09-17T08:22:26.176Z,82.70
2017-09-17T08:24:53.774Z,81.60
2017-09-17T08:27:21.358Z,80.90
2017-09-17T08:29:48.938Z,80.50
2017-09-17T08:32:17.303Z,80.10
2017-09-17T08:34:44.843Z,80.60
2017-09-17T08:37:12.387Z,80.70
2017-09-17T08:39:39.981Z,81.00
2017-09-17T08:42:07.618Z,80.40
2017-09-17T08:44:35.187Z,80.10
2017-09-17T08:47:02.753Z,80.00
2017-09-17T08:49:30.339Z,80.40
2017-09-17T08:51:57.932Z,79.70
2017-09-17T08:54:26.266Z,82.00
2017-09-17T08:56:53.845Z,82.00
2017-09-17T08:59:21.473Z,80.50
2017-09-17T09:01:49.035Z,80.00
2017-09-17T09:04:16.623Z,79.90
2017-09-17T09:06:44.213Z,79.80
2017-09-17T09:09:12.518Z,80.30
2017-09-17T09:11:40.102Z,80.30
2017-09-17T09:14:07.674Z,79.00
2017-09-17T09:16:35.233Z,78.50
2017-09-17T09:19:02.818Z,78.80
2017-09-17T09:21:31.185Z,78.50
2017-09-17T09:23:58.804Z,78.50
2017-09-17T09:26:26.387Z,77.60
2017-09-17T09:28:53.961Z,77.80
2017-09-17T09:31:21.549Z,78.50
2017-09-17T09:33:49.868Z,76.80
2017-09-17T09:36:17.440Z,76.80
2017-09-17T09:38:45.376Z,76.90
2017-09-17T09:41:12.995Z,77.80
2017-09-17T09:43:40.966Z,78.10
2017-09-17T09:46:08.621Z,77.70
2017-09-17T09:48:36.181Z,78.00
2017-09-17T09:51:04.126Z,79.00
2017-09-17T09:53:33.021Z,78.90
2017-09-17T09:56:01.531Z,79.50
2017-09-17T09:58:29.173Z,79.40
2017-09-17T10:00:58.062Z,78.10
2017-09-17T10:03:26.506Z,76.90
2017-09-17T10:05:54.609Z,78.40
2017-09-17T10:08:22.175Z,78.20
2017-09-17T10:10:49.734Z,78.60
2017-09-17T10:13:17.309Z,78.30
2017-09-17T10:15:44.869Z,75.90
2017-09-17T10:18:12.458Z,76.00
2017-09-17T10:20:40.008Z,75.60
2017-09-17T10:23:08.319Z,74.50
2017-09-17T10:25:36.556Z,74.40
2017-09-17T10:28:04.622Z,74.10
2017-09-17T10:30:32.243Z,73.50
2017-09-17T10:32:59.799Z,72.60
2017-09-17T10:35:27.359Z,72.00
2017-09-17T10:37:54.931Z,71.00
2017-09-17T10:40:22.497Z,71.40
2017-09-17T10:42:50.050Z,72.20
2017-09-17T10:45:17.633Z,71.30
2017-09-17T10:47:45.209Z,72.20
2017-09-17T10:50:13.525Z,70.50
2017-09-17T10:52:41.109Z,70.40
2017-09-17T10:55:08.655Z,69.20
2017-09-17T10:57:36.214Z,69.20
2017-09-17T11:00:03.794Z,69.60
2017-09-17T11:02:31.345Z,68.60
2017-09-17T11:05:00.537Z,68.10
2017-09-17T11:07:28.113Z,68.10
2017-09-17T11:09:55.676Z,67.50
2017-09-17T11:12:23.256Z,68.80
2017-09-17T11:14:51.599Z,67.00
2017-09-17T11:17:19.187Z,66.90
2017-09-17T11:19:47.578Z,66.70
2017-09-17T11:22:15.919Z,67.10
2017-09-17T11:24:43.494Z,67.10
2017-09-17T11:27:11.067Z,66.20
2017-09-17T11:29:39.432Z,65.70
2017-09-17T11:32:07.026Z,65.70
2017-09-17T11:34:34.586Z,67.60
2017-09-17T11:37:02.202Z,68.00
2017-09-17T11:39:29.792Z,68.20
2017-09-17T11:41:58.103Z,66.00
2017-09-17T11:44:25.659Z,66.00
2017-09-17T11:46:53.250Z,69.00
2017-09-17T11:49:20.844Z,68.20
2017-09-17T11:51:49.173Z,67.30
2017-09-17T11:54:16.766Z,67.30
2017-09-17T11:56:44.337Z,67.80
2017-09-17T11:59:12.677Z,67.30
2017-09-17T12:01:40.302Z,67.40
2017-09-17T12:04:07.872Z,67.70
2017-09-17T12:06:35.481Z,66.70
2017-09-17T12:09:03.074Z,66.60
2017-09-17T12:11:30.633Z,66.80
2017-09-17T12:13:58.985Z,66.40
2017-09-17T12:16:26.565Z,66.40
2017-09-17T12:18:54.907Z,64.90
2017-09-17T12:21:22.489Z,64.90
2017-09-17T12:23:50.809Z,65.40
2017-09-17T12:26:18.417Z,65.20
2017-09-17T12:28:46.045Z,68.30
2017-09-17T12:31:13.600Z,66.50
2017-09-17T12:33:41.171Z,66.60
2017-09-17T12:36:08.746Z,66.70
2017-09-17T12:38:36.315Z,66.10
2017-09-17T12:41:03.913Z,65.40
2017-09-17T12:43:31.473Z,65.20
2017-09-17T12:45:59.036Z,66.70
2017-09-17T12:48:26.626Z,65.80
2017-09-17T12:50:54.192Z,64.30
2017-09-17T12:53:21.778Z,64.90
2017-09-17T12:55:49.799Z,65.40
2017-09-17T12:58:17.613Z,64.50
2017-09-17T13:00:45.261Z,65.10
2017-09-17T13:03:12.834Z,66.10
2017-09-17T13:05:40.422Z,65.10
2017-09-17T13:08:08.104Z,65.30
2017-09-17T13:10:36.455Z,65.70
2017-09-17T13:13:04.829Z,67.70
2017-09-17T13:15:33.164Z,66.00
2017-09-17T13:18:00.727Z,66.00
2017-09-17T13:20:28.326Z,64.90
2017-09-17T13:22:56.637Z,60.90
2017-09-17T13:25:24.184Z,60.90
2017-09-17T13:27:51.796Z,59.20
2017-09-17T13:30:19.341Z,59.30
2017-09-17T13:32:46.918Z,58.20
2017-09-17T13:35:14.509Z,59.10
2017-09-17T13:37:42.820Z,61.40
2017-09-17T13:40:10.433Z,61.50
2017-09-17T13:42:38.035Z,59.50
2017-09-17T13:45:05.638Z,59.50
2017-09-17T13:47:33.214Z,58.50
2017-09-17T13:50:00.829Z,57.00
2017-09-17T13:52:28.394Z,56.40
2017-09-17T13:54:55.961Z,57.50
2017-09-17T13:57:23.557Z,55.70
2017-09-17T13:59:57.431Z,56.00
2017-09-17T14:02:30.565Z,55.90
2017-09-17T14:04:58.897Z,60.80
2017-09-17T14:07:30.288Z,60.70
2017-09-17T14:09:58.784Z,61.20
2017-09-17T14:12:27.123Z,60.80
2017-09-17T14:14:54.722Z,60.90
2017-09-17T14:17:23.053Z,55.80
2017-09-17T14:19:50.658Z,55.80
2017-09-17T14:22:19.001Z,59.10
2017-09-17T14:24:46.566Z,59.10
2017-09-17T14:27:14.191Z,60.60
2017-09-17T14:29:41.731Z,63.00
2017-09-17T14:32:09.310Z,62.40
2017-09-17T14:34:36.893Z,65.50
2017-09-17T14:37:04.454Z,63.60
2017-09-17T14:39:32.195Z,64.40
2017-09-17T14:41:59.779Z,64.20
2017-09-17T14:44:27.356Z,64.00
2017-09-17T14:46:55.715Z,65.30
2017-09-17T14:49:23.354Z,65.30
2017-09-17T14:51:50.952Z,65.60
2017-09-17T14:54:18.541Z,66.50
2017-09-17T14:56:46.088Z,66.80
2017-09-17T14:59:14.445Z,67.10
2017-09-17T15:01:41.992Z,67.00
2017-09-17T15:04:09.572Z,67.10
2017-09-17T15:06:37.162Z,66.50
2017-09-17T15:09:04.750Z,67.70
2017-09-17T15:11:32.345Z,66.80
2017-09-17T15:13:59.910Z,66.40
2017-09-17T15:16:27.478Z,66.40
2017-09-17T15:18:55.823Z,64.20
2017-09-17T15:21:23.389Z,64.20
2017-09-17T15:23:50.951Z,65.20
2017-09-17T15:26:18.541Z,67.00
2017-09-17T15:28:46.875Z,70.00
2017-09-17T15:31:14.451Z,70.00
2017-09-17T15:33:42.060Z,67.40
2017-09-17T15:36:09.620Z,65.50
2017-09-17T15:38:37.183Z,65.80
2017-09-17T15:41:04.768Z,65.40
2017-09-17T15:43:32.326Z,65.70
2017-09-17T15:45:59.883Z,64.90
2017-09-17T15:48:27.469Z,67.30
2017-09-17T15:50:55.023Z,66.80
2017-09-17T15:53:22.644Z,65.90
2017-09-17T15:55:50.300Z,66.40
2017-09-17T15:58:17.874Z,66.10
2017-09-17T16:00:45.463Z,64.80
2017-09-17T16:03:13.028Z,64.70
2017-09-17T16:05:40.626Z,64.70
2017-09-17T16:08:09.237Z,64.50
2017-09-17T16:10:36.823Z,64.50
2017-09-17T16:13:04.419Z,65.30
2017-09-17T16:15:32.754Z,64.80
2017-09-17T16:18:00.339Z,64.70
2017-09-17T16:20:27.928Z,64.40
2017-09-17T16:22:56.324Z,65.00
2017-09-17T16:25:23.886Z,64.90
2017-09-17T16:27:51.470Z,62.80
2017-09-17T16:30:19.069Z,66.20
2017-09-17T16:32:46.639Z,67.30
2017-09-17T16:35:14.993Z,63.60
2017-09-17T16:37:42.568Z,63.60
2017-09-17T16:40:10.890Z,65.40
2017-09-17T16:42:38.852Z,64.70
2017-09-17T16:45:06.410Z,67.10
2017-09-17T16:47:34.015Z,69.70
2017-09-17T16:50:01.633Z,70.50
2017-09-17T16:52:29.208Z,69.90
2017-09-17T16:54:56.841Z,70.60
2017-09-17T16:57:24.427Z,70.90
2017-09-17T16:59:52.013Z,71.10
2017-09-17T17:02:19.599Z,71.50
2017-09-17T17:04:48.715Z,71.60
2017-09-17T17:07:16.363Z,71.60
2017-09-17T17:09:44.696Z,72.40
2017-09-17T17:12:12.270Z,72.30
2017-09-17T17:14:39.857Z,72.20
2017-09-17T17:17:08.193Z,72.90
2017-09-17T17:19:36.555Z,73.00
2017-09-17T17:22:04.193Z,73.00
2017-09-17T17:24:31.749Z,72.70
2017-09-17T17:26:59.306Z,72.90
2017-09-17T17:29:27.691Z,73.30
2017-09-17T17:31:55.245Z,73.30
2017-09-17T17:34:22.862Z,73.70
2017-09-17T17:36:50.514Z,73.70
2017-09-17T17:39:18.115Z,73.40
2017-09-17T17:41:46.435Z,74.40
2017-09-17T17:44:14.059Z,73.50
2017-09-17T17:46:42.381Z,74.90
2017-09-17T17:49:09.981Z,74.80
2017-09-17T17:51:37.680Z,74.90
2017-09-17T17:54:05.219Z,74.80
2017-09-17T17:56:33.574Z,74.90
2017-09-17T17:59:01.149Z,74.90
2017-09-17T18:01:29.481Z,74.80
2017-09-17T18:03:57.048Z,74.80
2017-09-17T18:06:24.605Z,74.40
2017-09-17T18:08:52.188Z,74.60
2017-09-17T18:11:19.861Z,75.00
2017-09-17T18:13:47.406Z,75.20
2017-09-17T18:16:15.016Z,75.10
2017-09-17T18:18:42.573Z,75.30
2017-09-17T18:21:10.182Z,75.70
2017-09-17T18:23:37.747Z,75.80
2017-09-17T18:26:05.314Z,75.70
2017-09-17T18:28:32.983Z,75.90
2017-09-17T18:31:01.348Z,76.20
2017-09-17T18:33:28.965Z,76.10
2017-09-17T18:35:56.516Z,76.90
2017-09-17T18:38:24.101Z,75.80
2017-09-17T18:40:51.689Z,76.00
2017-09-17T18:43:19.262Z,76.20
2017-09-17T18:45:47.583Z,76.50
2017-09-17T18:48:15.182Z,76.50
2017-09-17T18:50:48.549Z,76.80
2017-09-17T18:53:16.147Z,76.60
2017-09-17T18:55:43.705Z,76.70
2017-09-17T18:58:11.260Z,76.60
2017-09-17T19:00:40.175Z,76.70
2017-09-17T19:03:09.567Z,76.60
2017-09-17T19:05:37.959Z,76.60
2017-09-17T19:08:06.282Z,76.60
2017-09-17T19:10:33.823Z,76.60
2017-09-17T19:13:01.465Z,76.80
2017-09-17T19:15:29.060Z,76.70
2017-09-17T19:17:56.645Z,76.80
2017-09-17T19:20:24.263Z,76.80
2017-09-17T19:22:52.243Z,77.20
2017-09-17T19:25:19.865Z,77.20
2017-09-17T19:27:48.478Z,77.60
2017-09-17T19:30:16.127Z,77.60
2017-09-17T19:32:43.830Z,77.60
2017-09-17T19:35:11.379Z,77.60
2017-09-17T19:37:39.132Z,77.40
2017-09-17T19:40:06.756Z,77.40
2017-09-17T19:42:35.076Z,77.60
2017-09-17T19:45:02.653Z,77.60
2017-09-17T19:47:30.237Z,77.60
2017-09-17T19:49:57.802Z,77.70
2017-09-17T19:52:26.142Z,77.50
2017-09-17T19:54:54.149Z,77.40
2017-09-17T19:57:21.755Z,77.60
2017-09-17T19:59:49.322Z,77.70
2017-09-17T20:02:16.919Z,77.30
2017-09-17T20:04:44.515Z,77.30
2017-09-17T20:07:12.093Z,77.20
2017-09-17T20:09:39.686Z,77.00
2017-09-17T20:12:07.237Z,77.10
2017-09-17T20:14:34.812Z,76.80
2017-09-17T20:17:02.389Z,76.80
2017-09-17T20:19:29.967Z,76.80
2017-09-17T20:21:58.327Z,76.70
2017-09-17T20:24:25.877Z,76.70
2017-09-17T20:26:53.440Z,77.50
2017-09-17T20:29:21.049Z,78.10
2017-09-17T20:31:48.614Z,76.90
2017-09-17T20:34:16.172Z,77.20
2017-09-17T20:36:43.780Z,76.70
2017-09-17T20:39:11.319Z,76.50
2017-09-17T20:41:38.881Z,76.50
2017-09-17T20:44:06.489Z,76.40
2017-09-17T20:46:34.041Z,76.50
2017-09-17T20:49:02.361Z,77.00
2017-09-17T20:51:29.934Z,76.90
2017-09-17T20:53:57.498Z,76.90
2017-09-17T20:56:25.129Z,78.10
2017-09-17T20:58:52.677Z,77.00
2017-09-17T21:01:20.219Z,77.00
2017-09-17T21:03:48.573Z,77.00
2017-09-17T21:06:16.125Z,76.90
2017-09-17T21:08:43.658Z,76.80
2017-09-17T21:11:11.258Z,77.70
2017-09-17T21:13:38.823Z,76.90
2017-09-17T21:16:07.159Z,76.70
2017-09-17T21:18:34.760Z,76.70
2017-09-17T21:21:03.071Z,76.70
2017-09-17T21:23:30.613Z,76.60
2017-09-17T21:25:58.969Z,77.50
2017-09-17T21:28:26.528Z,78.00
2017-09-17T21:30:54.105Z,77.90
2017-09-17T21:33:23.532Z,78.80
2017-09-17T21:35:52.062Z,78.80
2017-09-17T21:38:19.694Z,78.60
2017-09-17T21:40:47.267Z,78.00
2017-09-17T21:43:14.860Z,77.30
2017-09-17T21:45:45.217Z,76.80
2017-09-17T21:48:14.532Z,76.80
2017-09-17T21:50:42.121Z,76.90
2017-09-17T21:53:09.689Z,77.50
2017-09-17T21:55:37.244Z,76.70
2017-09-17T21:58:04.785Z,76.90
2017-09-17T22:00:32.371Z,77.90
2017-09-17T22:02:59.931Z,77.20
2017-09-17T22:05:27.522Z,76.00
2017-09-17T22:07:55.872Z,76.40
2017-09-17T22:10:23.441Z,76.40
2017-09-17T22:12:53.465Z,77.30
2017-09-17T22:15:21.829Z,77.50
2017-09-17T22:17:49.385Z,77.50
2017-09-17T22:20:16.951Z,78.10
2017-09-17T22:22:44.520Z,78.50
2017-09-17T22:25:12.854Z,77.80
2017-09-17T22:27:40.437Z,77.80
2017-09-17T22:30:08.028Z,77.60
2017-09-17T22:32:36.363Z,76.60
2017-09-17T22:35:03.928Z,76.60
2017-09-17T22:37:31.534Z,76.60
2017-09-17T22:39:59.095Z,76.00
2017-09-17T22:42:28.130Z,77.00
2017-09-17T22:44:55.720Z,77.50
2017-09-17T22:47:23.277Z,77.50
2017-09-17T22:49:50.839Z,77.80
2017-09-17T22:52:18.428Z,77.80
2017-09-17T22:54:45.987Z,78.10
2017-09-17T22:57:13.591Z,78.40
2017-09-17T22:59:41.177Z,78.90
2017-09-17T23:02:08.723Z,79.00
2017-09-17T23:04:36.296Z,79.80
2017-09-17T23:07:03.872Z,79.50
2017-09-17T23:09:32.955Z,79.50
2017-09-17T23:12:01.277Z,80.10
2017-09-17T23:14:28.873Z,80.10
2017-09-17T23:16:56.513Z,79.40
2017-09-17T23:19:24.066Z,79.40
2017-09-17T23:21:51.661Z,79.50
2017-09-17T23:24:19.214Z,79.40
2017-09-17T23:26:46.765Z,79.10
2017-09-17T23:29:15.091Z,79.50
2017-09-17T23:31:42.645Z,79.50
2017-09-17T23:34:11.003Z,79.30
2017-09-17T23:36:38.591Z,79.40
2017-09-17T23:39:06.151Z,79.50
2017-09-17T23:41:33.738Z,79.60
2017-09-17T23:44:01.321Z,79.60
2017-09-17T23:46:29.643Z,79.90
2017-09-17T23:48:57.976Z,79.90
2017-09-17T23:51:25.540Z,79.90
2017-09-17T23:53:53.079Z,80.00
2017-09-17T23:56:20.654Z,80.10
2017-09-17T23:58:48.230Z,79.90
